createdAt,value
2023-04-23T00:00:16.849Z,12.17
2023-04-23T00:03:09.581Z,14.10
2023-04-23T00:05:37.090Z,13.47
2023-04-23T00:08:04.237Z,12.47
2023-04-23T00:10:31.127Z,11.37
2023-04-23T00:12:59.266Z,12.40
2023-04-23T00:15:25.926Z,16.57
2023-04-23T00:17:54.392Z,15.37
2023-04-23T00:20:21.074Z,17.07
2023-04-23T00:22:47.661Z,14.20
2023-04-23T00:25:13.802Z,14.47
2023-04-23T00:27:40.257Z,15.13
2023-04-23T00:30:08.292Z,15.10
2023-04-23T00:32:34.979Z,15.00
2023-04-23T00:35:01.074Z,16.30
2023-04-23T00:37:27.451Z,14.53
2023-04-23T00:39:55.269Z,13.17
2023-04-23T00:42:21.747Z,13.77
2023-04-23T00:44:49.912Z,14.63
2023-04-23T00:47:17.211Z,15.33
2023-04-23T00:49:43.472Z,15.93
2023-04-23T00:52:09.844Z,15.07
2023-04-23T00:54:35.994Z,15.40
2023-04-23T00:57:02.979Z,15.70
2023-04-23T00:59:30.923Z,15.07
2023-04-23T01:01:59.134Z,15.57
2023-04-23T01:04:28.759Z,17.10
2023-04-23T01:06:56.121Z,18.43
2023-04-23T01:09:23.184Z,19.67
2023-04-23T01:11:50.774Z,16.93
2023-04-23T01:14:16.988Z,17.37
2023-04-23T01:16:43.477Z,17.93
2023-04-23T01:19:10.027Z,16.87
2023-04-23T01:21:40.042Z,16.07
2023-04-23T01:24:07.435Z,16.77
2023-04-23T01:26:34.162Z,15.93
2023-04-23T01:29:00.892Z,17.83
2023-04-23T01:31:28.141Z,16.97
2023-04-23T01:33:55.115Z,15.80
2023-04-23T01:36:24.879Z,15.53
2023-04-23T01:38:51.597Z,14.30
2023-04-23T01:41:19.246Z,15.20
2023-04-23T01:43:45.635Z,15.63
2023-04-23T01:46:12.271Z,16.03
2023-04-23T01:48:38.487Z,17.80
2023-04-23T01:51:04.959Z,17.17
2023-04-23T01:53:31.049Z,18.90
2023-04-23T01:55:59.093Z,16.33
2023-04-23T01:58:25.249Z,15.60
2023-04-23T02:00:53.604Z,15.80
2023-04-23T02:03:19.771Z,14.33
2023-04-23T02:05:47.162Z,15.80
2023-04-23T02:08:13.643Z,16.63
2023-04-23T02:10:40.026Z,18.80
2023-04-23T02:13:06.388Z,26.50
2023-04-23T02:16:04.770Z,24.80
2023-04-23T02:18:31.034Z,22.03
2023-04-23T02:20:59.053Z,24.50
2023-04-23T02:23:25.131Z,25.97
2023-04-23T02:25:51.871Z,21.57
2023-04-23T02:28:18.038Z,19.33
2023-04-23T02:30:47.088Z,19.13
2023-04-23T02:33:13.469Z,20.33
2023-04-23T02:35:40.193Z,18.53
2023-04-23T02:38:06.244Z,17.30
2023-04-23T02:40:32.613Z,17.20
2023-04-23T02:42:58.685Z,16.77
2023-04-23T02:45:25.039Z,13.70
2023-04-23T02:47:52.648Z,13.77
2023-04-23T02:50:19.227Z,15.33
2023-04-23T02:52:47.040Z,17.20
2023-04-23T02:55:13.493Z,18.57
2023-04-23T02:57:39.661Z,18.67
2023-04-23T03:00:07.025Z,17.53
2023-04-23T03:02:38.813Z,18.87
2023-04-23T03:05:06.750Z,17.43
2023-04-23T03:07:32.856Z,18.20
2023-04-23T03:09:59.175Z,16.73
2023-04-23T03:12:25.340Z,16.20
2023-04-23T03:14:51.788Z,20.83
2023-04-23T03:17:18.045Z,33.80
2023-04-23T03:19:44.586Z,26.43
2023-04-23T03:22:11.122Z,25.10
2023-04-23T03:24:37.542Z,21.57
2023-04-23T03:27:03.671Z,22.57
2023-04-23T03:29:30.147Z,21.47
2023-04-23T03:31:56.250Z,20.60
2023-04-23T03:34:22.758Z,20.20
2023-04-23T03:36:50.116Z,20.50
2023-04-23T03:39:17.096Z,18.70
2023-04-23T03:41:49.880Z,18.47
2023-04-23T03:44:19.237Z,18.00
2023-04-23T03:46:46.199Z,17.17
2023-04-23T03:49:15.995Z,15.43
2023-04-23T03:51:42.141Z,16.13
2023-04-23T03:54:09.067Z,14.67
2023-04-23T03:56:48.672Z,15.13
2023-04-23T03:59:27.836Z,13.60
2023-04-23T04:01:57.822Z,14.63
2023-04-23T04:04:25.747Z,14.90
2023-04-23T04:06:52.214Z,15.40
2023-04-23T04:09:18.630Z,14.17
2023-04-23T04:11:44.746Z,13.60
2023-04-23T04:14:11.194Z,12.87
2023-04-23T04:16:37.299Z,14.03
2023-04-23T04:19:03.712Z,13.10
2023-04-23T04:21:29.783Z,13.97
2023-04-23T04:23:56.358Z,13.73
2023-04-23T04:26:22.509Z,12.53
2023-04-23T04:28:48.879Z,13.60
2023-04-23T04:31:15.279Z,13.43
2023-04-23T04:33:42.565Z,14.40
2023-04-23T04:36:08.748Z,15.17
2023-04-23T04:38:38.409Z,17.10
2023-04-23T04:41:05.693Z,16.30
2023-04-23T04:43:32.175Z,15.40
2023-04-23T04:45:58.767Z,15.37
2023-04-23T04:48:25.360Z,14.97
2023-04-23T04:50:51.573Z,14.93
2023-04-23T04:53:17.975Z,14.20
2023-04-23T04:55:44.104Z,14.63
2023-04-23T04:58:10.470Z,13.27
2023-04-23T05:00:37.214Z,14.67
2023-04-23T05:03:04.004Z,14.03
2023-04-23T05:05:32.301Z,12.40
2023-04-23T05:08:01.304Z,13.37
2023-04-23T05:10:28.901Z,11.97
2023-04-23T05:12:58.990Z,11.90
2023-04-23T05:15:25.115Z,12.70
2023-04-23T05:17:52.841Z,11.87
2023-04-23T05:20:20.192Z,11.40
2023-04-23T05:22:46.855Z,11.30
2023-04-23T05:25:13.448Z,11.57
2023-04-23T05:27:40.679Z,10.93
2023-04-23T05:30:09.610Z,11.00
2023-04-23T05:32:36.566Z,10.67
2023-04-23T05:35:03.433Z,11.23
2023-04-23T05:37:31.067Z,9.77
2023-04-23T05:39:57.780Z,10.10
2023-04-23T05:42:24.623Z,10.33
2023-04-23T05:44:51.246Z,9.70
2023-04-23T05:47:17.894Z,9.60
2023-04-23T05:49:44.189Z,9.30
2023-04-23T05:52:11.124Z,8.97
2023-04-23T05:54:38.406Z,9.03
2023-04-23T05:57:05.011Z,10.33
2023-04-23T05:59:31.537Z,9.30
2023-04-23T06:01:58.088Z,9.37
2023-04-23T06:04:24.664Z,8.63
2023-04-23T06:06:51.398Z,9.33
2023-04-23T06:09:17.564Z,7.90
2023-04-23T06:11:44.184Z,7.83
2023-04-23T06:14:10.432Z,7.70
2023-04-23T06:16:37.160Z,8.27
2023-04-23T06:19:03.668Z,8.00
2023-04-23T06:21:30.640Z,7.53
2023-04-23T06:23:56.757Z,7.67
2023-04-23T06:26:23.142Z,8.37
2023-04-23T06:28:51.330Z,7.72
2023-04-23T06:31:31.324Z,7.40
2023-04-23T06:33:57.582Z,8.07
2023-04-23T06:36:24.038Z,8.48
2023-04-23T06:38:50.315Z,8.55
2023-04-23T06:41:17.317Z,7.82
2023-04-23T06:43:45.179Z,8.05
2023-04-23T06:46:14.742Z,7.90
2023-04-23T06:48:41.115Z,7.63
2023-04-23T06:51:07.858Z,7.03
2023-04-23T06:53:34.197Z,7.55
2023-04-23T06:56:00.871Z,7.20
2023-04-23T06:58:30.744Z,8.20
2023-04-23T07:01:03.633Z,7.30
2023-04-23T07:03:32.261Z,7.28
2023-04-23T07:05:59.302Z,6.28
2023-04-23T07:08:25.943Z,6.85
2023-04-23T07:10:52.844Z,6.72
2023-04-23T07:13:20.802Z,7.40
2023-04-23T07:15:48.323Z,6.28
2023-04-23T07:18:14.461Z,6.82
2023-04-23T07:20:40.921Z,6.50
2023-04-23T07:23:08.443Z,6.05
2023-04-23T07:25:35.241Z,6.57
2023-04-23T07:28:01.883Z,6.18
2023-04-23T07:30:30.271Z,6.32
2023-04-23T07:32:56.467Z,5.60
2023-04-23T07:35:22.980Z,6.20
2023-04-23T07:37:53.017Z,5.78
2023-04-23T07:40:22.734Z,5.95
2023-04-23T07:42:50.024Z,5.50
2023-04-23T07:45:17.381Z,6.13
2023-04-23T07:47:45.730Z,5.55
2023-04-23T07:50:13.056Z,5.75
2023-04-23T07:52:39.467Z,5.60
2023-04-23T07:55:06.636Z,5.50
2023-04-23T07:57:32.890Z,5.47
2023-04-23T07:59:59.501Z,5.75
2023-04-23T08:02:27.060Z,5.43
2023-04-23T08:04:54.290Z,5.43
2023-04-23T08:07:20.580Z,5.03
2023-04-23T08:09:48.521Z,5.85
2023-04-23T08:12:16.504Z,5.25
2023-04-23T08:14:44.028Z,5.50
2023-04-23T08:17:13.807Z,5.30
2023-04-23T08:19:40.348Z,5.18
2023-04-23T08:22:06.849Z,5.40
2023-04-23T08:24:33.373Z,5.63
2023-04-23T08:26:59.532Z,5.43
2023-04-23T08:29:26.013Z,5.72
2023-04-23T08:31:52.533Z,5.25
2023-04-23T08:34:19.657Z,4.88
2023-04-23T08:36:46.756Z,5.22
2023-04-23T08:39:16.426Z,5.35
2023-04-23T08:41:44.441Z,5.00
2023-04-23T08:44:21.165Z,4.95
2023-04-23T08:46:48.034Z,4.78
2023-04-23T08:49:16.223Z,5.00
2023-04-23T08:51:51.560Z,4.53
2023-04-23T08:54:26.247Z,4.95
2023-04-23T08:56:58.979Z,4.72
2023-04-23T08:59:26.616Z,4.35
2023-04-23T09:01:53.208Z,4.00
2023-04-23T09:04:19.925Z,3.90
2023-04-23T09:06:46.121Z,4.80
2023-04-23T09:09:17.203Z,4.43
2023-04-23T09:11:43.959Z,7.53
2023-04-23T09:14:12.412Z,4.55
2023-04-23T09:16:41.788Z,4.07
2023-04-23T09:19:10.688Z,3.90
2023-04-23T09:21:40.439Z,4.38
2023-04-23T09:24:10.978Z,3.88
2023-04-23T09:26:48.004Z,3.97
2023-04-23T09:29:22.774Z,4.28
2023-04-23T09:31:55.322Z,4.38
2023-04-23T09:34:24.208Z,4.47
2023-04-23T09:36:52.542Z,4.13
2023-04-23T09:39:22.046Z,4.13
2023-04-23T09:41:52.092Z,4.20
2023-04-23T09:44:21.833Z,4.45
2023-04-23T09:46:48.714Z,4.50
2023-04-23T09:49:15.997Z,3.85
2023-04-23T09:51:47.301Z,4.10
2023-04-23T09:54:15.592Z,4.50
2023-04-23T09:56:42.655Z,3.97
2023-04-23T09:59:46.023Z,4.25
2023-04-23T10:02:15.602Z,4.90
2023-04-23T10:04:42.929Z,4.13
2023-04-23T10:09:43.055Z,4.47
2023-04-23T10:12:27.836Z,4.43
2023-04-23T10:14:58.830Z,3.30
2023-04-23T10:17:25.371Z,4.15
2023-04-23T10:19:52.193Z,3.90
2023-04-23T10:22:20.937Z,3.65
2023-04-23T10:24:52.508Z,4.45
2023-04-23T10:29:53.252Z,3.30
2023-04-23T10:32:20.947Z,3.70
2023-04-23T10:34:48.414Z,3.22
2023-04-23T10:37:15.760Z,3.45
2023-04-23T10:39:44.089Z,3.30
2023-04-23T10:42:12.788Z,3.15
2023-04-23T10:47:15.380Z,3.35
2023-04-23T10:49:44.899Z,2.72
2023-04-23T10:52:20.815Z,3.05
2023-04-23T10:54:56.405Z,3.20
2023-04-23T10:57:22.643Z,3.47
2023-04-23T10:59:54.585Z,3.38
2023-04-23T11:02:24.120Z,3.28
2023-04-23T11:05:00.737Z,2.95
2023-04-23T11:07:32.322Z,3.22
2023-04-23T11:10:00.537Z,3.63
2023-04-23T11:12:26.832Z,3.85
2023-04-23T11:14:55.027Z,3.55
2023-04-23T11:17:23.858Z,3.35
2023-04-23T11:20:20.576Z,2.83
2023-04-23T11:22:49.657Z,3.00
2023-04-23T11:25:25.624Z,2.80
2023-04-23T11:27:54.240Z,2.65
2023-04-23T11:30:22.912Z,3.05
2023-04-23T11:32:50.898Z,3.35
2023-04-23T11:35:20.303Z,5.65
2023-04-23T11:37:50.372Z,3.65
2023-04-23T11:40:18.725Z,2.97
2023-04-23T11:42:46.682Z,5.13
2023-04-23T11:45:24.138Z,3.33
2023-04-23T11:47:55.610Z,3.00
2023-04-23T11:50:29.127Z,2.97
2023-04-23T11:52:55.666Z,3.38
2023-04-23T11:55:22.795Z,2.70
2023-04-23T11:57:50.825Z,2.83
2023-04-23T12:00:21.554Z,3.10
2023-04-23T12:02:58.843Z,3.22
2023-04-23T12:05:36.065Z,3.17
2023-04-23T12:08:15.538Z,3.83
2023-04-23T12:10:46.310Z,3.28
2023-04-23T12:13:16.554Z,2.90
2023-04-23T12:15:49.588Z,3.10
2023-04-23T12:18:16.645Z,3.55
2023-04-23T12:20:43.909Z,3.30
2023-04-23T12:23:10.072Z,3.25
2023-04-23T12:25:36.731Z,2.97
2023-04-23T12:28:06.140Z,2.83
2023-04-23T12:30:34.356Z,2.20
2023-04-23T12:33:05.946Z,2.33
2023-04-23T12:35:43.612Z,2.47
2023-04-23T12:38:24.122Z,2.70
2023-04-23T12:41:01.057Z,2.92
2023-04-23T12:43:27.288Z,3.15
2023-04-23T12:45:54.200Z,2.50
2023-04-23T12:48:20.553Z,2.58
2023-04-23T12:50:47.974Z,2.40
2023-04-23T12:53:14.799Z,2.30
2023-04-23T12:55:43.603Z,2.13
2023-04-23T12:58:12.892Z,2.30
2023-04-23T13:00:39.493Z,2.60
2023-04-23T13:03:06.050Z,2.28
2023-04-23T13:05:32.515Z,2.08
2023-04-23T13:07:58.744Z,2.75
2023-04-23T13:10:25.635Z,2.58
2023-04-23T13:12:51.761Z,2.67
2023-04-23T13:15:20.056Z,2.47
2023-04-23T13:17:46.646Z,2.25
2023-04-23T13:20:13.268Z,1.92
2023-04-23T13:22:40.514Z,2.63
2023-04-23T13:25:07.306Z,2.53
2023-04-23T13:27:33.397Z,3.00
2023-04-23T13:29:59.944Z,2.50
2023-04-23T13:32:31.318Z,2.50
2023-04-23T13:35:01.146Z,1.98
2023-04-23T13:37:29.436Z,2.28
2023-04-23T13:39:56.110Z,2.63
2023-04-23T13:42:22.858Z,2.42
2023-04-23T13:44:50.066Z,2.25
2023-04-23T13:47:16.384Z,2.47
2023-04-23T13:49:43.014Z,2.63
2023-04-23T13:52:09.490Z,1.73
2023-04-23T13:54:36.174Z,2.33
2023-04-23T13:57:02.621Z,2.15
2023-04-23T13:59:29.483Z,2.53
2023-04-23T14:01:55.922Z,2.67
2023-04-23T14:04:23.473Z,2.38
2023-04-23T14:06:50.222Z,2.60
2023-04-23T14:09:18.323Z,2.80
2023-04-23T14:11:45.009Z,2.65
2023-04-23T14:14:11.732Z,2.53
2023-04-23T14:16:38.152Z,3.08
2023-04-23T14:19:05.605Z,2.60
2023-04-23T14:21:33.153Z,2.88
2023-04-23T14:24:28.024Z,2.65
2023-04-23T14:26:54.867Z,2.53
2023-04-23T14:29:35.440Z,2.35
2023-04-23T14:32:02.263Z,2.55
2023-04-23T14:34:35.292Z,2.97
2023-04-23T14:37:02.939Z,2.70
2023-04-23T14:39:30.028Z,3.28
2023-04-23T14:41:56.335Z,2.75
2023-04-23T14:44:24.220Z,2.85
2023-04-23T14:46:50.754Z,3.40
2023-04-23T14:49:20.165Z,3.05
2023-04-23T14:51:50.191Z,3.03
2023-04-23T14:54:17.019Z,3.78
2023-04-23T14:56:43.639Z,3.33
2023-04-23T14:59:10.429Z,2.90
2023-04-23T15:01:36.997Z,2.90
2023-04-23T15:04:04.504Z,4.13
2023-04-23T15:06:30.917Z,4.53
2023-04-23T15:08:57.624Z,8.65
2023-04-23T15:11:24.017Z,6.35
2023-04-23T15:14:06.187Z,10.85
2023-04-23T15:19:09.394Z,16.60
2023-04-23T15:21:36.139Z,13.27
2023-04-23T15:24:02.852Z,4.18
2023-04-23T15:26:34.840Z,2.75
2023-04-23T15:29:02.477Z,3.40
2023-04-23T15:31:28.805Z,10.43
2023-04-23T15:33:55.967Z,25.92
2023-04-23T15:36:22.446Z,21.23
2023-04-23T15:38:49.022Z,19.25
2023-04-23T15:41:15.604Z,11.10
2023-04-23T15:43:42.155Z,7.65
2023-04-23T15:46:08.730Z,7.40
2023-04-23T15:48:35.528Z,5.30
2023-04-23T15:51:03.238Z,5.10
2023-04-23T15:53:30.032Z,5.00
2023-04-23T15:55:57.047Z,4.90
2023-04-23T15:58:23.754Z,4.53
2023-04-23T16:00:50.120Z,5.37
2023-04-23T16:03:16.983Z,5.13
2023-04-23T16:05:44.189Z,5.23
2023-04-23T16:08:11.280Z,4.73
2023-04-23T16:10:37.783Z,4.77
2023-04-23T16:13:05.509Z,4.43
2023-04-23T16:15:31.719Z,5.33
2023-04-23T16:17:59.274Z,5.50
2023-04-23T16:20:27.263Z,5.03
2023-04-23T16:22:54.305Z,7.13
2023-04-23T16:25:20.971Z,17.17
2023-04-23T16:27:48.085Z,27.07
2023-04-23T16:30:14.952Z,21.87
2023-04-23T16:32:41.816Z,12.90
2023-04-23T16:35:08.455Z,8.85
2023-04-23T16:37:35.309Z,6.83
2023-04-23T16:40:01.524Z,7.47
2023-04-23T16:42:28.180Z,7.70
2023-04-23T16:44:54.986Z,7.68
2023-04-23T16:47:21.782Z,7.25
2023-04-23T16:49:48.195Z,7.23
2023-04-23T16:52:14.727Z,9.77
2023-04-23T16:54:41.194Z,16.53
2023-04-23T16:57:07.928Z,15.93
2023-04-23T16:59:34.353Z,16.27
2023-04-23T17:02:01.238Z,20.03
2023-04-23T17:04:27.721Z,7.73
2023-04-23T17:06:54.424Z,5.97
2023-04-23T17:09:20.679Z,5.33
2023-04-23T17:11:47.160Z,5.20
2023-04-23T17:14:13.296Z,5.23
2023-04-23T17:16:40.869Z,4.73
2023-04-23T17:19:07.523Z,5.00
2023-04-23T17:21:34.138Z,5.80
2023-04-23T17:24:00.700Z,5.63
2023-04-23T17:26:27.344Z,5.50
2023-04-23T17:28:53.650Z,6.03
2023-04-23T17:31:20.744Z,6.60
2023-04-23T17:33:48.636Z,6.63
2023-04-23T17:36:16.421Z,6.93
2023-04-23T17:38:42.699Z,7.57
2023-04-23T17:41:09.246Z,7.30
2023-04-23T17:43:35.472Z,8.37
2023-04-23T17:46:02.359Z,6.50
2023-04-23T17:48:29.163Z,6.80
2023-04-23T17:50:55.971Z,7.47
2023-04-23T17:53:22.501Z,9.37
2023-04-23T17:55:49.084Z,6.67
2023-04-23T17:58:15.824Z,7.07
2023-04-23T18:00:42.491Z,8.90
2023-04-23T18:03:10.528Z,7.50
2023-04-23T18:05:37.189Z,8.23
2023-04-23T18:08:03.811Z,7.50
2023-04-23T18:10:30.414Z,8.90
2023-04-23T18:12:56.870Z,7.23
2023-04-23T18:15:24.966Z,6.70
2023-04-23T18:17:53.890Z,8.83
2023-04-23T18:20:24.583Z,10.63
2023-04-23T18:22:55.381Z,11.27
2023-04-23T18:25:24.618Z,10.37
2023-04-23T18:27:51.239Z,10.67
2023-04-23T18:30:22.605Z,9.27
2023-04-23T18:32:59.170Z,9.87
2023-04-23T18:35:26.162Z,10.60
2023-04-23T18:38:09.950Z,9.23
2023-04-23T18:40:36.722Z,10.73
2023-04-23T18:43:03.121Z,16.93
2023-04-23T18:45:29.874Z,13.10
2023-04-23T18:48:01.972Z,13.20
2023-04-23T18:50:52.599Z,11.23
2023-04-23T18:53:21.696Z,7.70
2023-04-23T18:55:50.486Z,7.00
2023-04-23T18:58:16.859Z,6.70
2023-04-23T19:00:44.181Z,6.37
2023-04-23T19:03:23.304Z,5.77
2023-04-23T19:05:52.419Z,5.60
2023-04-23T19:08:18.739Z,6.20
2023-04-23T19:10:47.038Z,5.60
2023-04-23T19:13:13.561Z,6.33
2023-04-23T19:15:40.761Z,12.63
2023-04-23T19:18:07.353Z,8.37
2023-04-23T19:20:34.128Z,6.87
2023-04-23T19:23:00.719Z,12.50
2023-04-23T19:25:27.508Z,19.70
2023-04-23T19:27:54.016Z,19.37
2023-04-23T19:30:20.825Z,18.57
2023-04-23T19:32:47.373Z,16.17
2023-04-23T19:35:14.032Z,15.17
2023-04-23T19:37:40.402Z,16.73
2023-04-23T19:40:08.410Z,16.10
2023-04-23T19:42:34.742Z,14.80
2023-04-23T19:45:02.094Z,13.50
2023-04-23T19:47:28.695Z,12.37
2023-04-23T19:49:55.968Z,11.60
2023-04-23T19:52:25.416Z,10.63
2023-04-23T19:54:52.171Z,10.80
2023-04-23T19:57:19.218Z,10.47
2023-04-23T19:59:46.164Z,10.60
2023-04-23T20:02:12.769Z,11.83
2023-04-23T20:04:40.863Z,10.57
2023-04-23T20:07:10.034Z,11.03
2023-04-23T20:09:36.877Z,9.23
2023-04-23T20:12:03.475Z,8.40
2023-04-23T20:14:30.638Z,9.03
2023-04-23T20:16:57.251Z,8.53
2023-04-23T20:19:26.999Z,7.97
2023-04-23T20:21:53.727Z,8.20
2023-04-23T20:24:20.782Z,7.30
2023-04-23T20:26:48.108Z,7.17
2023-04-23T20:29:14.910Z,6.73
2023-04-23T20:31:41.875Z,6.60
2023-04-23T20:34:08.607Z,6.93
2023-04-23T20:36:37.935Z,6.70
2023-04-23T20:39:04.562Z,6.83
2023-04-23T20:41:35.886Z,6.60
2023-04-23T20:44:02.686Z,7.03
2023-04-23T20:46:32.473Z,11.50
2023-04-23T20:49:02.743Z,11.07
2023-04-23T20:51:34.411Z,9.67
2023-04-23T20:54:01.748Z,11.47
2023-04-23T20:56:29.876Z,11.97
2023-04-23T20:58:57.251Z,16.37
2023-04-23T21:01:24.956Z,16.03
2023-04-23T21:03:52.659Z,11.87
2023-04-23T21:06:20.430Z,12.00
2023-04-23T21:08:48.207Z,7.70
2023-04-23T21:11:16.920Z,7.40
2023-04-23T21:13:43.364Z,7.50
2023-04-23T21:16:10.880Z,7.07
2023-04-23T21:18:38.013Z,7.40
2023-04-23T21:21:05.156Z,6.50
2023-04-23T21:23:31.686Z,6.50
2023-04-23T21:25:58.397Z,7.23
2023-04-23T21:28:24.535Z,6.93
2023-04-23T21:30:53.202Z,7.50
2023-04-23T21:33:20.874Z,6.93
2023-04-23T21:35:49.043Z,7.10
2023-04-23T21:38:16.190Z,7.03
2023-04-23T21:40:43.287Z,6.80
2023-04-23T21:43:10.836Z,8.53
2023-04-23T21:45:37.650Z,12.43
2023-04-23T21:48:04.413Z,12.07
2023-04-23T21:50:31.882Z,12.50
2023-04-23T21:52:59.020Z,9.23
2023-04-23T21:55:27.229Z,14.67
2023-04-23T21:57:56.396Z,15.13
2023-04-23T22:00:24.902Z,54.13
2023-04-23T22:02:54.306Z,20.70
2023-04-23T22:05:22.869Z,11.87
2023-04-23T22:07:53.607Z,8.53
2023-04-23T22:10:22.138Z,8.30
2023-04-23T22:12:49.147Z,7.77
2023-04-23T22:15:17.703Z,7.43
2023-04-23T22:17:47.652Z,7.30
2023-04-23T22:20:14.910Z,8.43
2023-04-23T22:22:41.693Z,7.67
2023-04-23T22:25:10.171Z,7.77
2023-04-23T22:27:38.337Z,7.93
2023-04-23T22:30:07.151Z,7.20
2023-04-23T22:32:34.287Z,10.53
2023-04-23T22:35:01.231Z,9.30
2023-04-23T22:37:27.557Z,8.27
2023-04-23T22:39:54.041Z,7.67
2023-04-23T22:42:20.316Z,7.47
2023-04-23T22:44:46.727Z,7.53
2023-04-23T22:47:12.984Z,7.93
2023-04-23T22:49:40.325Z,8.80
2023-04-23T22:52:07.990Z,9.50
2023-04-23T22:54:34.339Z,8.77
2023-04-23T22:57:01.361Z,9.53
2023-04-23T22:59:27.736Z,9.00
2023-04-23T23:01:53.942Z,8.73
2023-04-23T23:04:20.600Z,9.17
2023-04-23T23:06:46.829Z,8.67
2023-04-23T23:09:13.343Z,9.40
2023-04-23T23:11:39.596Z,9.10
2023-04-23T23:14:06.100Z,9.93
2023-04-23T23:16:32.252Z,8.70
2023-04-23T23:18:58.634Z,10.47
2023-04-23T23:21:25.528Z,9.87
2023-04-23T23:23:52.056Z,10.03
2023-04-23T23:26:19.257Z,10.07
2023-04-23T23:28:45.588Z,9.63
2023-04-23T23:31:11.779Z,10.63
2023-04-23T23:33:38.950Z,10.57
2023-04-23T23:36:06.341Z,10.77
2023-04-23T23:38:32.976Z,9.87
2023-04-23T23:40:59.176Z,10.33
2023-04-23T23:43:25.620Z,9.47
2023-04-23T23:45:51.680Z,8.07
2023-04-23T23:48:18.269Z,7.37
2023-04-23T23:50:45.025Z,8.37
2023-04-23T23:53:11.355Z,8.60
2023-04-23T23:55:39.794Z,8.97
2023-04-23T23:58:06.279Z,8.07
